sensor_id;sensor_type;location;lat;lon;timestamp;temperature;humidity
27747;DHT22;15138;51.012;4.692;2023-05-07T00:00:50;15.70;1.00
27747;DHT22;15138;51.012;4.692;2023-05-07T00:03:18;15.60;99.90
27747;DHT22;15138;51.012;4.692;2023-05-07T00:05:48;15.60;99.90
27747;DHT22;15138;51.012;4.692;2023-05-07T00:08:16;15.70;99.90
27747;DHT22;15138;51.012;4.692;2023-05-07T00:10:44;15.70;99.90
27747;DHT22;15138;51.012;4.692;2023-05-07T00:13:13;15.70;99.90
27747;DHT22;15138;51.012;4.692;2023-05-07T00:15:41;15.70;99.90
27747;DHT22;15138;51.012;4.692;2023-05-07T00:18:09;15.70;99.90
27747;DHT22;15138;51.012;4.692;2023-05-07T00:20:36;15.60;99.90
27747;DHT22;15138;51.012;4.692;2023-05-07T00:23:06;15.70;99.90
27747;DHT22;15138;51.012;4.692;2023-05-07T00:25:34;15.60;99.90
27747;DHT22;15138;51.012;4.692;2023-05-07T00:28:01;15.60;99.90
27747;DHT22;15138;51.012;4.692;2023-05-07T00:30:30;15.70;99.90
27747;DHT22;15138;51.012;4.692;2023-05-07T00:32:58;15.60;99.90
27747;DHT22;15138;51.012;4.692;2023-05-07T00:35:26;15.60;1.00
27747;DHT22;15138;51.012;4.692;2023-05-07T00:37:54;15.50;1.00
27747;DHT22;15138;51.012;4.692;2023-05-07T00:40:23;15.50;99.90
27747;DHT22;15138;51.012;4.692;2023-05-07T00:42:51;15.60;99.90
27747;DHT22;15138;51.012;4.692;2023-05-07T00:45:23;15.60;99.90
27747;DHT22;15138;51.012;4.692;2023-05-07T00:47:53;15.50;99.90
27747;DHT22;15138;51.012;4.692;2023-05-07T00:50:21;15.60;99.90
27747;DHT22;15138;51.012;4.692;2023-05-07T00:52:49;15.60;99.90
27747;DHT22;15138;51.012;4.692;2023-05-07T00:55:17;15.50;99.90
27747;DHT22;15138;51.012;4.692;2023-05-07T00:57:47;15.60;99.90
27747;DHT22;15138;51.012;4.692;2023-05-07T01:00:17;15.60;99.90
27747;DHT22;15138;51.012;4.692;2023-05-07T01:02:46;15.50;99.90
27747;DHT22;15138;51.012;4.692;2023-05-07T01:05:15;15.50;99.90
27747;DHT22;15138;51.012;4.692;2023-05-07T01:07:44;15.50;99.90
27747;DHT22;15138;51.012;4.692;2023-05-07T01:10:13;15.50;99.90
27747;DHT22;15138;51.012;4.692;2023-05-07T01:12:41;15.50;99.90
27747;DHT22;15138;51.012;4.692;2023-05-07T01:15:11;15.40;99.90
27747;DHT22;15138;51.012;4.692;2023-05-07T01:17:39;15.40;99.90
27747;DHT22;15138;51.012;4.692;2023-05-07T01:20:08;15.40;99.90
27747;DHT22;15138;51.012;4.692;2023-05-07T01:22:39;15.40;99.90
27747;DHT22;15138;51.012;4.692;2023-05-07T01:25:07;15.40;99.90
27747;DHT22;15138;51.012;4.692;2023-05-07T01:27:35;15.30;99.90
27747;DHT22;15138;51.012;4.692;2023-05-07T01:30:04;15.30;99.90
27747;DHT22;15138;51.012;4.692;2023-05-07T01:32:32;15.30;99.90
27747;DHT22;15138;51.012;4.692;2023-05-07T01:35:01;15.30;99.90
27747;DHT22;15138;51.012;4.692;2023-05-07T01:37:30;15.30;99.90
27747;DHT22;15138;51.012;4.692;2023-05-07T01:39:59;15.30;99.90
27747;DHT22;15138;51.012;4.692;2023-05-07T01:42:28;15.30;99.90
27747;DHT22;15138;51.012;4.692;2023-05-07T01:44:56;15.30;99.90
27747;DHT22;15138;51.012;4.692;2023-05-07T01:47:24;15.30;99.90
27747;DHT22;15138;51.012;4.692;2023-05-07T01:49:52;15.30;99.90
27747;DHT22;15138;51.012;4.692;2023-05-07T01:52:20;15.30;99.90
27747;DHT22;15138;51.012;4.692;2023-05-07T01:54:48;15.30;99.90
27747;DHT22;15138;51.012;4.692;2023-05-07T01:57:18;15.30;99.90
27747;DHT22;15138;51.012;4.692;2023-05-07T01:59:46;15.20;99.90
27747;DHT22;15138;51.012;4.692;2023-05-07T02:02:13;15.30;99.90
27747;DHT22;15138;51.012;4.692;2023-05-07T02:04:41;15.20;99.90
27747;DHT22;15138;51.012;4.692;2023-05-07T02:07:09;15.20;99.90
27747;DHT22;15138;51.012;4.692;2023-05-07T02:09:37;15.20;99.90
27747;DHT22;15138;51.012;4.692;2023-05-07T02:12:05;15.20;99.90
27747;DHT22;15138;51.012;4.692;2023-05-07T02:14:35;15.10;1.00
27747;DHT22;15138;51.012;4.692;2023-05-07T02:17:03;15.10;1.00
27747;DHT22;15138;51.012;4.692;2023-05-07T02:19:31;15.10;1.00
27747;DHT22;15138;51.012;4.692;2023-05-07T02:21:58;15.10;1.00
27747;DHT22;15138;51.012;4.692;2023-05-07T02:24:27;15.20;1.00
27747;DHT22;15138;51.012;4.692;2023-05-07T02:26:55;15.10;1.00
27747;DHT22;15138;51.012;4.692;2023-05-07T02:29:22;15.10;1.00
27747;DHT22;15138;51.012;4.692;2023-05-07T02:31:53;15.10;1.00
27747;DHT22;15138;51.012;4.692;2023-05-07T02:34:22;15.10;1.00
27747;DHT22;15138;51.012;4.692;2023-05-07T02:36:50;15.10;1.00
27747;DHT22;15138;51.012;4.692;2023-05-07T02:39:18;15.10;1.00
27747;DHT22;15138;51.012;4.692;2023-05-07T02:41:45;15.10;1.00
27747;DHT22;15138;51.012;4.692;2023-05-07T02:44:13;15.10;99.90
27747;DHT22;15138;51.012;4.692;2023-05-07T02:46:41;15.10;99.90
27747;DHT22;15138;51.012;4.692;2023-05-07T02:49:11;15.10;99.90
27747;DHT22;15138;51.012;4.692;2023-05-07T02:51:38;15.10;1.00
27747;DHT22;15138;51.012;4.692;2023-05-07T02:54:06;15.10;99.90
27747;DHT22;15138;51.012;4.692;2023-05-07T02:56:34;15.10;99.90
27747;DHT22;15138;51.012;4.692;2023-05-07T02:59:02;15.10;99.90
27747;DHT22;15138;51.012;4.692;2023-05-07T03:01:30;15.10;99.90
27747;DHT22;15138;51.012;4.692;2023-05-07T03:03:58;15.20;1.00
27747;DHT22;15138;51.012;4.692;2023-05-07T03:06:27;15.30;1.00
27747;DHT22;15138;51.012;4.692;2023-05-07T03:08:55;15.10;1.00
27747;DHT22;15138;51.012;4.692;2023-05-07T03:11:23;15.30;1.00
27747;DHT22;15138;51.012;4.692;2023-05-07T03:13:51;15.10;1.00
27747;DHT22;15138;51.012;4.692;2023-05-07T03:16:20;15.30;1.00
27747;DHT22;15138;51.012;4.692;2023-05-07T03:18:48;15.20;1.60
27747;DHT22;15138;51.012;4.692;2023-05-07T03:21:16;15.20;1.00
27747;DHT22;15138;51.012;4.692;2023-05-07T03:23:45;15.20;1.00
27747;DHT22;15138;51.012;4.692;2023-05-07T03:26:13;15.20;1.00
27747;DHT22;15138;51.012;4.692;2023-05-07T03:28:41;15.20;99.90
27747;DHT22;15138;51.012;4.692;2023-05-07T03:31:09;15.20;99.90
27747;DHT22;15138;51.012;4.692;2023-05-07T03:33:39;15.10;99.90
27747;DHT22;15138;51.012;4.692;2023-05-07T03:36:16;15.00;1.00
27747;DHT22;15138;51.012;4.692;2023-05-07T03:38:45;15.00;56.60
27747;DHT22;15138;51.012;4.692;2023-05-07T03:41:13;15.10;17.80
27747;DHT22;15138;51.012;4.692;2023-05-07T03:43:41;15.10;99.90
27747;DHT22;15138;51.012;4.692;2023-05-07T03:46:09;15.10;99.90
27747;DHT22;15138;51.012;4.692;2023-05-07T03:48:37;15.00;99.90
27747;DHT22;15138;51.012;4.692;2023-05-07T03:51:05;15.20;99.90
27747;DHT22;15138;51.012;4.692;2023-05-07T03:53:33;15.00;1.00
27747;DHT22;15138;51.012;4.692;2023-05-07T03:56:02;15.00;1.00
27747;DHT22;15138;51.012;4.692;2023-05-07T03:58:30;15.10;1.00
27747;DHT22;15138;51.012;4.692;2023-05-07T04:00:58;15.10;1.00
27747;DHT22;15138;51.012;4.692;2023-05-07T04:03:26;15.10;1.00
27747;DHT22;15138;51.012;4.692;2023-05-07T04:05:54;15.10;1.20
27747;DHT22;15138;51.012;4.692;2023-05-07T04:08:22;15.20;99.90
27747;DHT22;15138;51.012;4.692;2023-05-07T04:10:54;15.00;99.90
27747;DHT22;15138;51.012;4.692;2023-05-07T04:13:23;15.10;99.90
27747;DHT22;15138;51.012;4.692;2023-05-07T04:15:51;15.10;99.90
27747;DHT22;15138;51.012;4.692;2023-05-07T04:18:19;15.00;1.00
27747;DHT22;15138;51.012;4.692;2023-05-07T04:20:47;15.10;1.00
27747;DHT22;15138;51.012;4.692;2023-05-07T04:23:16;15.10;1.00
27747;DHT22;15138;51.012;4.692;2023-05-07T04:25:44;15.10;1.00
27747;DHT22;15138;51.012;4.692;2023-05-07T04:28:12;15.10;1.00
27747;DHT22;15138;51.012;4.692;2023-05-07T04:30:42;15.10;1.00
27747;DHT22;15138;51.012;4.692;2023-05-07T04:33:10;15.10;1.00
27747;DHT22;15138;51.012;4.692;2023-05-07T04:35:38;15.10;1.00
27747;DHT22;15138;51.012;4.692;2023-05-07T04:38:06;15.10;7.00
27747;DHT22;15138;51.012;4.692;2023-05-07T04:40:35;15.10;63.20
27747;DHT22;15138;51.012;4.692;2023-05-07T04:43:03;15.10;99.90
27747;DHT22;15138;51.012;4.692;2023-05-07T04:45:31;15.10;56.90
27747;DHT22;15138;51.012;4.692;2023-05-07T04:48:01;15.10;64.60
27747;DHT22;15138;51.012;4.692;2023-05-07T04:50:29;15.10;20.40
27747;DHT22;15138;51.012;4.692;2023-05-07T04:52:57;15.10;46.20
27747;DHT22;15138;51.012;4.692;2023-05-07T04:55:25;15.20;22.50
27747;DHT22;15138;51.012;4.692;2023-05-07T04:57:53;15.20;1.00
27747;DHT22;15138;51.012;4.692;2023-05-07T05:00:21;15.30;99.90
27747;DHT22;15138;51.012;4.692;2023-05-07T05:02:49;15.20;99.90
27747;DHT22;15138;51.012;4.692;2023-05-07T05:05:19;15.20;99.90
27747;DHT22;15138;51.012;4.692;2023-05-07T05:07:47;15.30;21.60
27747;DHT22;15138;51.012;4.692;2023-05-07T05:10:15;15.40;99.90
27747;DHT22;15138;51.012;4.692;2023-05-07T05:12:43;15.40;99.90
27747;DHT22;15138;51.012;4.692;2023-05-07T05:15:11;15.30;99.90
27747;DHT22;15138;51.012;4.692;2023-05-07T05:17:40;15.30;99.90
27747;DHT22;15138;51.012;4.692;2023-05-07T05:20:08;15.30;99.90
27747;DHT22;15138;51.012;4.692;2023-05-07T05:22:39;15.40;99.90
27747;DHT22;15138;51.012;4.692;2023-05-07T05:25:07;15.40;99.90
27747;DHT22;15138;51.012;4.692;2023-05-07T05:27:35;15.50;99.90
27747;DHT22;15138;51.012;4.692;2023-05-07T05:30:03;15.50;99.90
27747;DHT22;15138;51.012;4.692;2023-05-07T05:32:31;15.60;99.90
27747;DHT22;15138;51.012;4.692;2023-05-07T05:35:00;15.60;1.00
27747;DHT22;15138;51.012;4.692;2023-05-07T05:37:28;15.60;1.00
27747;DHT22;15138;51.012;4.692;2023-05-07T05:39:58;15.70;1.00
27747;DHT22;15138;51.012;4.692;2023-05-07T05:42:26;15.70;99.90
27747;DHT22;15138;51.012;4.692;2023-05-07T05:44:53;15.80;99.90
27747;DHT22;15138;51.012;4.692;2023-05-07T05:47:22;15.80;99.90
27747;DHT22;15138;51.012;4.692;2023-05-07T05:49:50;15.90;99.90
27747;DHT22;15138;51.012;4.692;2023-05-07T05:52:18;15.90;99.90
27747;DHT22;15138;51.012;4.692;2023-05-07T05:54:46;15.90;99.90
27747;DHT22;15138;51.012;4.692;2023-05-07T05:57:15;16.00;99.90
27747;DHT22;15138;51.012;4.692;2023-05-07T05:59:43;16.10;99.90
27747;DHT22;15138;51.012;4.692;2023-05-07T06:02:11;16.10;99.90
27747;DHT22;15138;51.012;4.692;2023-05-07T06:04:39;16.10;99.90
27747;DHT22;15138;51.012;4.692;2023-05-07T06:07:09;16.20;29.20
27747;DHT22;15138;51.012;4.692;2023-05-07T06:09:38;16.30;99.90
27747;DHT22;15138;51.012;4.692;2023-05-07T06:12:05;16.20;99.90
27747;DHT22;15138;51.012;4.692;2023-05-07T06:14:35;16.30;99.90
27747;DHT22;15138;51.012;4.692;2023-05-07T06:17:03;16.30;1.00
27747;DHT22;15138;51.012;4.692;2023-05-07T06:19:32;16.30;1.00
27747;DHT22;15138;51.012;4.692;2023-05-07T06:21:59;16.40;1.00
27747;DHT22;15138;51.012;4.692;2023-05-07T06:24:29;16.50;1.00
27747;DHT22;15138;51.012;4.692;2023-05-07T06:26:57;16.50;1.00
27747;DHT22;15138;51.012;4.692;2023-05-07T06:29:25;16.50;1.00
27747;DHT22;15138;51.012;4.692;2023-05-07T06:31:54;16.60;1.00
27747;DHT22;15138;51.012;4.692;2023-05-07T06:34:22;16.60;1.00
27747;DHT22;15138;51.012;4.692;2023-05-07T06:36:50;16.80;99.90
27747;DHT22;15138;51.012;4.692;2023-05-07T06:39:18;16.90;1.00
27747;DHT22;15138;51.012;4.692;2023-05-07T06:41:46;17.00;1.00
27747;DHT22;15138;51.012;4.692;2023-05-07T06:44:14;16.90;99.90
27747;DHT22;15138;51.012;4.692;2023-05-07T06:46:42;17.10;1.00
27747;DHT22;15138;51.012;4.692;2023-05-07T06:51:40;16.90;99.90
27747;DHT22;15138;51.012;4.692;2023-05-07T06:54:07;17.00;99.90
27747;DHT22;15138;51.012;4.692;2023-05-07T06:56:35;16.80;99.90
27747;DHT22;15138;51.012;4.692;2023-05-07T07:01:31;16.90;99.90
27747;DHT22;15138;51.012;4.692;2023-05-07T07:03:59;16.80;99.90
27747;DHT22;15138;51.012;4.692;2023-05-07T07:06:28;16.80;99.90
27747;DHT22;15138;51.012;4.692;2023-05-07T07:08:59;16.80;99.90
27747;DHT22;15138;51.012;4.692;2023-05-07T07:11:27;16.80;99.90
27747;DHT22;15138;51.012;4.692;2023-05-07T07:13:55;16.80;99.90
27747;DHT22;15138;51.012;4.692;2023-05-07T07:18:51;17.00;1.00
27747;DHT22;15138;51.012;4.692;2023-05-07T07:21:19;16.90;1.00
27747;DHT22;15138;51.012;4.692;2023-05-07T07:23:47;16.90;1.00
27747;DHT22;15138;51.012;4.692;2023-05-07T07:26:17;16.90;99.90
27747;DHT22;15138;51.012;4.692;2023-05-07T07:28:45;16.90;99.90
27747;DHT22;15138;51.012;4.692;2023-05-07T07:31:13;17.10;40.40
27747;DHT22;15138;51.012;4.692;2023-05-07T07:53:29;17.40;1.00
27747;DHT22;15138;51.012;4.692;2023-05-07T07:55:57;17.30;6.50
27747;DHT22;15138;51.012;4.692;2023-05-07T07:58:25;17.40;6.20
27747;DHT22;15138;51.012;4.692;2023-05-07T08:00:53;17.40;1.00
27747;DHT22;15138;51.012;4.692;2023-05-07T08:03:22;17.50;6.10
27747;DHT22;15138;51.012;4.692;2023-05-07T08:05:50;17.50;1.00
27747;DHT22;15138;51.012;4.692;2023-05-07T08:08:18;17.50;7.10
27747;DHT22;15138;51.012;4.692;2023-05-07T08:11:17;17.50;1.00
27747;DHT22;15138;51.012;4.692;2023-05-07T08:13:46;17.60;1.00
27747;DHT22;15138;51.012;4.692;2023-05-07T08:16:14;17.70;1.00
27747;DHT22;15138;51.012;4.692;2023-05-07T08:18:42;17.70;1.00
27747;DHT22;15138;51.012;4.692;2023-05-07T08:21:11;17.70;1.00
27747;DHT22;15138;51.012;4.692;2023-05-07T08:23:39;17.70;3.10
27747;DHT22;15138;51.012;4.692;2023-05-07T08:26:07;17.70;22.60
27747;DHT22;15138;51.012;4.692;2023-05-07T08:28:37;17.70;1.00
27747;DHT22;15138;51.012;4.692;2023-05-07T08:31:06;17.70;1.00
27747;DHT22;15138;51.012;4.692;2023-05-07T08:33:34;17.80;1.00
27747;DHT22;15138;51.012;4.692;2023-05-07T08:36:03;17.90;1.00
27747;DHT22;15138;51.012;4.692;2023-05-07T08:38:31;17.90;1.00
27747;DHT22;15138;51.012;4.692;2023-05-07T08:40:59;17.80;1.00
27747;DHT22;15138;51.012;4.692;2023-05-07T08:43:28;17.90;1.00
27747;DHT22;15138;51.012;4.692;2023-05-07T08:46:01;17.90;1.00
27747;DHT22;15138;51.012;4.692;2023-05-07T08:48:31;17.90;1.00
27747;DHT22;15138;51.012;4.692;2023-05-07T08:51:00;18.00;1.00
27747;DHT22;15138;51.012;4.692;2023-05-07T08:53:28;18.10;1.00
27747;DHT22;15138;51.012;4.692;2023-05-07T08:55:56;18.10;1.00
27747;DHT22;15138;51.012;4.692;2023-05-07T08:58:25;18.20;1.00
27747;DHT22;15138;51.012;4.692;2023-05-07T09:00:54;18.30;8.40
27747;DHT22;15138;51.012;4.692;2023-05-07T09:03:23;18.10;70.50
27747;DHT22;15138;51.012;4.692;2023-05-07T09:08:24;18.30;20.60
27747;DHT22;15138;51.012;4.692;2023-05-07T09:10:53;18.30;1.00
27747;DHT22;15138;51.012;4.692;2023-05-07T09:13:21;18.50;1.00
27747;DHT22;15138;51.012;4.692;2023-05-07T09:15:49;18.50;1.00
27747;DHT22;15138;51.012;4.692;2023-05-07T09:18:18;18.30;23.30
27747;DHT22;15138;51.012;4.692;2023-05-07T09:20:47;18.40;42.70
27747;DHT22;15138;51.012;4.692;2023-05-07T09:23:19;18.40;38.30
27747;DHT22;15138;51.012;4.692;2023-05-07T09:25:48;18.50;26.90
27747;DHT22;15138;51.012;4.692;2023-05-07T09:28:16;18.50;30.60
27747;DHT22;15138;51.012;4.692;2023-05-07T09:30:44;18.50;39.70
27747;DHT22;15138;51.012;4.692;2023-05-07T09:33:12;18.80;99.90
27747;DHT22;15138;51.012;4.692;2023-05-07T09:35:41;18.80;62.20
27747;DHT22;15138;51.012;4.692;2023-05-07T09:38:10;18.60;1.00
27747;DHT22;15138;51.012;4.692;2023-05-07T09:40:39;18.60;1.00
27747;DHT22;15138;51.012;4.692;2023-05-07T09:43:10;18.50;2.50
27747;DHT22;15138;51.012;4.692;2023-05-07T09:45:39;18.50;15.30
27747;DHT22;15138;51.012;4.692;2023-05-07T09:48:08;18.60;1.00
27747;DHT22;15138;51.012;4.692;2023-05-07T09:50:39;18.50;3.90
27747;DHT22;15138;51.012;4.692;2023-05-07T09:53:11;18.40;52.60
27747;DHT22;15138;51.012;4.692;2023-05-07T09:55:39;18.50;97.60
27747;DHT22;15138;51.012;4.692;2023-05-07T09:58:09;18.60;93.60
27747;DHT22;15138;51.012;4.692;2023-05-07T10:00:41;18.60;63.90
27747;DHT22;15138;51.012;4.692;2023-05-07T10:03:10;18.60;61.10
27747;DHT22;15138;51.012;4.692;2023-05-07T10:05:40;18.70;28.60
27747;DHT22;15138;51.012;4.692;2023-05-07T10:08:10;18.80;16.70
27747;DHT22;15138;51.012;4.692;2023-05-07T10:10:40;18.70;18.20
27747;DHT22;15138;51.012;4.692;2023-05-07T10:13:09;18.70;35.50
27747;DHT22;15138;51.012;4.692;2023-05-07T10:15:38;18.80;53.60
27747;DHT22;15138;51.012;4.692;2023-05-07T10:18:06;18.80;68.50
27747;DHT22;15138;51.012;4.692;2023-05-07T10:20:36;18.80;63.00
27747;DHT22;15138;51.012;4.692;2023-05-07T10:23:05;18.80;60.40
27747;DHT22;15138;51.012;4.692;2023-05-07T10:25:33;18.90;99.90
27747;DHT22;15138;51.012;4.692;2023-05-07T10:28:06;18.90;94.30
27747;DHT22;15138;51.012;4.692;2023-05-07T10:30:47;18.80;93.90
27747;DHT22;15138;51.012;4.692;2023-05-07T10:33:23;19.00;99.90
27747;DHT22;15138;51.012;4.692;2023-05-07T10:35:57;18.90;99.90
27747;DHT22;15138;51.012;4.692;2023-05-07T10:38:27;18.80;99.90
27747;DHT22;15138;51.012;4.692;2023-05-07T10:40:55;18.80;99.90
27747;DHT22;15138;51.012;4.692;2023-05-07T10:43:25;19.20;99.90
27747;DHT22;15138;51.012;4.692;2023-05-07T10:46:15;19.20;10.50
27747;DHT22;15138;51.012;4.692;2023-05-07T10:49:08;19.30;22.00
27747;DHT22;15138;51.012;4.692;2023-05-07T10:51:38;19.30;1.00
27747;DHT22;15138;51.012;4.692;2023-05-07T10:54:23;19.50;32.20
27747;DHT22;15138;51.012;4.692;2023-05-07T10:56:54;19.50;20.80
27747;DHT22;15138;51.012;4.692;2023-05-07T10:59:36;19.50;6.10
27747;DHT22;15138;51.012;4.692;2023-05-07T11:02:11;19.40;13.30
27747;DHT22;15138;51.012;4.692;2023-05-07T11:04:41;19.40;3.50
27747;DHT22;15138;51.012;4.692;2023-05-07T11:10:06;19.40;45.90
27747;DHT22;15138;51.012;4.692;2023-05-07T11:12:54;19.30;56.60
27747;DHT22;15138;51.012;4.692;2023-05-07T11:15:40;19.40;35.90
27747;DHT22;15138;51.012;4.692;2023-05-07T11:18:13;19.40;31.50
27747;DHT22;15138;51.012;4.692;2023-05-07T11:20:56;19.50;24.00
27747;DHT22;15138;51.012;4.692;2023-05-07T11:23:55;19.50;19.10
27747;DHT22;15138;51.012;4.692;2023-05-07T11:26:26;19.50;16.00
27747;DHT22;15138;51.012;4.692;2023-05-07T11:28:55;19.60;25.30
27747;DHT22;15138;51.012;4.692;2023-05-07T11:31:27;19.50;1.00
27747;DHT22;15138;51.012;4.692;2023-05-07T11:33:57;19.40;1.00
27747;DHT22;15138;51.012;4.692;2023-05-07T11:36:31;19.60;19.30
27747;DHT22;15138;51.012;4.692;2023-05-07T11:38:59;19.60;1.00
27747;DHT22;15138;51.012;4.692;2023-05-07T11:41:34;19.60;1.00
27747;DHT22;15138;51.012;4.692;2023-05-07T11:44:03;19.70;1.00
27747;DHT22;15138;51.012;4.692;2023-05-07T11:46:33;19.60;1.00
27747;DHT22;15138;51.012;4.692;2023-05-07T11:49:02;19.70;1.00
27747;DHT22;15138;51.012;4.692;2023-05-07T11:51:30;19.70;1.00
27747;DHT22;15138;51.012;4.692;2023-05-07T11:53:58;19.80;1.00
27747;DHT22;15138;51.012;4.692;2023-05-07T11:56:26;19.80;1.00
27747;DHT22;15138;51.012;4.692;2023-05-07T11:58:55;19.90;1.00
27747;DHT22;15138;51.012;4.692;2023-05-07T12:01:23;20.00;1.00
27747;DHT22;15138;51.012;4.692;2023-05-07T12:06:21;20.10;1.00
27747;DHT22;15138;51.012;4.692;2023-05-07T12:08:49;20.20;1.00
27747;DHT22;15138;51.012;4.692;2023-05-07T12:11:22;20.30;99.90
27747;DHT22;15138;51.012;4.692;2023-05-07T12:13:53;20.20;1.00
27747;DHT22;15138;51.012;4.692;2023-05-07T12:16:25;20.20;1.00
27747;DHT22;15138;51.012;4.692;2023-05-07T12:18:55;20.50;99.90
27747;DHT22;15138;51.012;4.692;2023-05-07T12:21:25;20.40;1.00
27747;DHT22;15138;51.012;4.692;2023-05-07T12:23:53;20.20;1.00
27747;DHT22;15138;51.012;4.692;2023-05-07T12:26:22;20.30;1.00
27747;DHT22;15138;51.012;4.692;2023-05-07T12:28:51;20.40;1.00
27747;DHT22;15138;51.012;4.692;2023-05-07T12:31:19;20.50;1.00
27747;DHT22;15138;51.012;4.692;2023-05-07T12:33:47;20.50;1.00
27747;DHT22;15138;51.012;4.692;2023-05-07T12:36:17;20.50;1.00
27747;DHT22;15138;51.012;4.692;2023-05-07T12:38:45;20.60;1.00
27747;DHT22;15138;51.012;4.692;2023-05-07T12:41:17;20.60;1.00
27747;DHT22;15138;51.012;4.692;2023-05-07T12:46:13;20.90;1.00
27747;DHT22;15138;51.012;4.692;2023-05-07T12:48:44;20.80;1.00
27747;DHT22;15138;51.012;4.692;2023-05-07T12:51:13;21.00;1.00
27747;DHT22;15138;51.012;4.692;2023-05-07T12:53:43;20.90;1.00
27747;DHT22;15138;51.012;4.692;2023-05-07T12:56:11;20.80;1.00
27747;DHT22;15138;51.012;4.692;2023-05-07T12:58:40;20.90;1.00
27747;DHT22;15138;51.012;4.692;2023-05-07T13:01:08;21.00;1.00
27747;DHT22;15138;51.012;4.692;2023-05-07T13:03:38;21.10;99.90
27747;DHT22;15138;51.012;4.692;2023-05-07T13:06:08;21.20;1.00
27747;DHT22;15138;51.012;4.692;2023-05-07T13:08:40;21.20;1.00
27747;DHT22;15138;51.012;4.692;2023-05-07T13:11:12;21.20;1.00
27747;DHT22;15138;51.012;4.692;2023-05-07T13:13:41;21.30;1.00
27747;DHT22;15138;51.012;4.692;2023-05-07T13:16:10;21.30;1.00
27747;DHT22;15138;51.012;4.692;2023-05-07T13:18:40;21.30;1.00
27747;DHT22;15138;51.012;4.692;2023-05-07T13:21:10;21.30;1.00
27747;DHT22;15138;51.012;4.692;2023-05-07T13:23:40;21.30;1.00
27747;DHT22;15138;51.012;4.692;2023-05-07T13:26:08;21.20;1.00
27747;DHT22;15138;51.012;4.692;2023-05-07T13:28:53;21.40;1.00
27747;DHT22;15138;51.012;4.692;2023-05-07T13:31:21;21.40;1.00
27747;DHT22;15138;51.012;4.692;2023-05-07T13:33:50;21.40;1.00
27747;DHT22;15138;51.012;4.692;2023-05-07T13:36:19;21.50;1.00
27747;DHT22;15138;51.012;4.692;2023-05-07T13:38:47;21.50;1.00
27747;DHT22;15138;51.012;4.692;2023-05-07T13:41:15;21.50;1.00
27747;DHT22;15138;51.012;4.692;2023-05-07T13:43:44;21.50;1.00
27747;DHT22;15138;51.012;4.692;2023-05-07T13:46:13;21.30;1.00
27747;DHT22;15138;51.012;4.692;2023-05-07T13:48:41;21.30;1.00
27747;DHT22;15138;51.012;4.692;2023-05-07T13:51:09;21.50;1.00
27747;DHT22;15138;51.012;4.692;2023-05-07T13:53:38;21.50;1.00
27747;DHT22;15138;51.012;4.692;2023-05-07T13:56:06;21.60;1.00
27747;DHT22;15138;51.012;4.692;2023-05-07T13:58:34;21.50;1.00
27747;DHT22;15138;51.012;4.692;2023-05-07T14:01:15;21.50;1.00
27747;DHT22;15138;51.012;4.692;2023-05-07T14:03:43;21.40;1.00
27747;DHT22;15138;51.012;4.692;2023-05-07T14:06:12;21.40;1.00
27747;DHT22;15138;51.012;4.692;2023-05-07T14:08:40;21.60;1.00
27747;DHT22;15138;51.012;4.692;2023-05-07T14:11:08;21.70;1.00
27747;DHT22;15138;51.012;4.692;2023-05-07T14:13:36;21.70;1.00
27747;DHT22;15138;51.012;4.692;2023-05-07T14:16:05;21.70;1.00
27747;DHT22;15138;51.012;4.692;2023-05-07T14:18:35;21.70;1.00
27747;DHT22;15138;51.012;4.692;2023-05-07T14:21:04;21.60;1.00
27747;DHT22;15138;51.012;4.692;2023-05-07T14:23:34;21.70;1.00
27747;DHT22;15138;51.012;4.692;2023-05-07T14:26:03;21.80;24.40
27747;DHT22;15138;51.012;4.692;2023-05-07T14:28:31;21.80;99.90
27747;DHT22;15138;51.012;4.692;2023-05-07T14:30:59;21.70;17.10
27747;DHT22;15138;51.012;4.692;2023-05-07T14:33:27;21.70;1.00
27747;DHT22;15138;51.012;4.692;2023-05-07T14:35:57;21.60;99.90
27747;DHT22;15138;51.012;4.692;2023-05-07T14:38:25;21.60;99.90
27747;DHT22;15138;51.012;4.692;2023-05-07T14:40:53;21.70;99.90
27747;DHT22;15138;51.012;4.692;2023-05-07T14:43:23;21.60;99.90
27747;DHT22;15138;51.012;4.692;2023-05-07T14:45:51;21.80;99.90
27747;DHT22;15138;51.012;4.692;2023-05-07T14:48:20;21.70;1.00
27747;DHT22;15138;51.012;4.692;2023-05-07T14:50:48;21.80;1.00
27747;DHT22;15138;51.012;4.692;2023-05-07T14:53:17;21.80;1.00
27747;DHT22;15138;51.012;4.692;2023-05-07T14:55:47;21.80;1.00
27747;DHT22;15138;51.012;4.692;2023-05-07T14:58:15;21.80;1.00
27747;DHT22;15138;51.012;4.692;2023-05-07T15:00:44;21.90;1.00
27747;DHT22;15138;51.012;4.692;2023-05-07T15:03:12;21.80;1.00
27747;DHT22;15138;51.012;4.692;2023-05-07T15:05:40;21.80;1.00
27747;DHT22;15138;51.012;4.692;2023-05-07T15:08:09;21.90;1.00
27747;DHT22;15138;51.012;4.692;2023-05-07T15:10:39;21.90;1.00
27747;DHT22;15138;51.012;4.692;2023-05-07T15:13:08;21.90;1.00
27747;DHT22;15138;51.012;4.692;2023-05-07T15:15:42;21.90;1.00
27747;DHT22;15138;51.012;4.692;2023-05-07T15:18:10;21.90;1.00
27747;DHT22;15138;51.012;4.692;2023-05-07T15:20:39;21.90;1.00
27747;DHT22;15138;51.012;4.692;2023-05-07T15:23:08;21.90;1.00
27747;DHT22;15138;51.012;4.692;2023-05-07T15:25:40;21.90;1.00
27747;DHT22;15138;51.012;4.692;2023-05-07T15:28:08;21.90;1.00
27747;DHT22;15138;51.012;4.692;2023-05-07T15:30:37;21.90;1.00
27747;DHT22;15138;51.012;4.692;2023-05-07T15:33:05;21.90;1.00
27747;DHT22;15138;51.012;4.692;2023-05-07T15:35:33;21.90;1.00
27747;DHT22;15138;51.012;4.692;2023-05-07T15:38:02;21.90;1.00
27747;DHT22;15138;51.012;4.692;2023-05-07T15:40:30;21.90;1.00
27747;DHT22;15138;51.012;4.692;2023-05-07T15:43:01;22.00;1.00
27747;DHT22;15138;51.012;4.692;2023-05-07T15:45:29;21.80;1.00
27747;DHT22;15138;51.012;4.692;2023-05-07T15:47:58;21.90;1.00
27747;DHT22;15138;51.012;4.692;2023-05-07T15:50:26;21.50;99.90
27747;DHT22;15138;51.012;4.692;2023-05-07T15:52:55;21.30;99.90
27747;DHT22;15138;51.012;4.692;2023-05-07T15:55:24;21.20;99.90
27747;DHT22;15138;51.012;4.692;2023-05-07T15:57:52;21.30;1.00
27747;DHT22;15138;51.012;4.692;2023-05-07T16:00:22;21.40;1.00
27747;DHT22;15138;51.012;4.692;2023-05-07T16:02:50;21.50;1.00
27747;DHT22;15138;51.012;4.692;2023-05-07T16:05:19;21.10;99.90
27747;DHT22;15138;51.012;4.692;2023-05-07T16:10:15;20.90;99.90
27747;DHT22;15138;51.012;4.692;2023-05-07T16:12:44;21.00;1.00
27747;DHT22;15138;51.012;4.692;2023-05-07T16:15:12;21.00;1.00
27747;DHT22;15138;51.012;4.692;2023-05-07T16:17:45;21.10;1.00
27747;DHT22;15138;51.012;4.692;2023-05-07T16:20:13;21.00;1.00
27747;DHT22;15138;51.012;4.692;2023-05-07T16:22:45;20.90;1.00
27747;DHT22;15138;51.012;4.692;2023-05-07T16:25:14;20.90;99.90
27747;DHT22;15138;51.012;4.692;2023-05-07T16:27:42;21.00;1.00
27747;DHT22;15138;51.012;4.692;2023-05-07T16:30:10;20.90;1.00
27747;DHT22;15138;51.012;4.692;2023-05-07T16:32:39;20.90;1.00